Flight Track Log - Related Links

Times and Time Zones

All times are in EDT time to prevent confusion due to time zone crossing. See the SWA508 flight status page for this flight to view local times or setup timezone preferences in your user account.

Time Position Orientation Groundspeed Altitude Reporting Facility
EDT Latitude Longitude Course Direction KTS MPH feet Rate Location/Type
Tue 03:53:58 PM 39.8833 -75.2167 90° East 151 174 1,000  Level Philadelphia TRACON
Tue 03:54:22 PM 39.8833 -75.2000 90° East 162 186 1,700 2,267 Climbing Philadelphia TRACON
Tue 03:54:43 PM 39.8881 -75.1753 76° East 199 229 2,700 3,220 Climbing FAA TRACON SMA TRACON (SMA)
Tue 03:55:03 PM 39.8975 -75.1572 56° Northeast 212 244 3,900 3,450 Climbing FAA TRACON SMA TRACON (SMA)
Tue 03:55:23 PM 39.9153 -75.1556 North 226 260 5,000 3,846 Climbing FAA TRACON SMA TRACON (SMA)
Tue 03:55:42 PM 39.9286 -75.1717 317° Northwest 215 247 6,400 4,000 Climbing FAA TRACON SMA TRACON (SMA)
Tue 03:56:02 PM 39.9322 -75.2033 278° West 254 292 7,600 3,150 Climbing FAA TRACON SMA TRACON (SMA)
Tue 03:56:22 PM 39.9322 -75.2317 270° West 268 308 8,500 2,550 Climbing FAA TRACON SMA TRACON (SMA)
Tue 03:56:42 PM 39.9308 -75.2689 267° West 273 314 9,300 1,950 Climbing FAA TRACON SMA TRACON (SMA)
Tue 03:57:02 PM 39.9297 -75.2994 267° West 278 320 9,800 1,050 Climbing FAA TRACON SMA TRACON (SMA)
Tue 03:57:22 PM 39.9286 -75.3322 267° West 303 349 10,000 300 Climbing FAA TRACON SMA TRACON (SMA)
Tue 03:57:42 PM 39.9275 -75.3739 268° West 314 361 10,000  Level FAA TRACON SMA TRACON (SMA)
Tue 03:58:03 PM 39.9264 -75.4094 268° West 314 361 10,000  Level FAA TRACON SMA TRACON (SMA)
Tue 03:58:23 PM 39.9250 -75.4531 268° West 313 360 10,000  Level FAA TRACON SMA TRACON (SMA)
Tue 03:58:42 PM 39.9239 -75.4878 268° West 313 360 10,000  Level FAA TRACON SMA TRACON (SMA)
Tue 03:59:03 PM 39.9228 -75.5222 268° West 313 360 10,000  Level FAA TRACON SMA TRACON (SMA)
Tue 03:59:23 PM 39.9211 -75.5650 267° West 313 360 10,000  Level FAA TRACON SMA TRACON (SMA)
Tue 03:59:43 PM 39.9203 -75.6011 268° West 315 362 10,000  Level FAA TRACON SMA TRACON (SMA)
Tue 04:00:03 PM 39.9192 -75.6361 268° West 315 362 10,000  Level FAA TRACON SMA TRACON (SMA)
Tue 04:00:22 PM 39.9183 -75.6708 268° West 315 362 10,000 102 Level FAA TRACON SMA TRACON (SMA)
Tue 04:01:02 PM 39.9158 -75.7503 268° West 314 361 10,100 1,200 Climbing FAA TRACON SMA TRACON (SMA)
Tue 04:01:22 PM 39.9158 -75.7933 270° West 316 364 11,200 3,659 Climbing FAA TRACON SMA TRACON (SMA)
Tue 04:01:43 PM 39.9153 -75.8300 269° West 321 369 12,600 3,951 Climbing FAA TRACON SMA TRACON (SMA)
Tue 04:02:03 PM 39.9142 -75.8669 268° West 327 376 13,900 3,750 Climbing FAA TRACON SMA TRACON (SMA)
Tue 04:02:23 PM 39.9133 -75.9042 268° West 333 383 15,100 3,900 Climbing FAA TRACON SMA TRACON (SMA)
Tue 04:02:43 PM 39.9125 -75.9475 269° West 339 390 16,500 3,750 Climbing FAA TRACON SMA TRACON (SMA)
Tue 04:03:03 PM 39.9117 -75.9886 268° West 345 397 17,600 2,400 Climbing FAA TRACON SMA TRACON (SMA)
Tue 04:03:23 PM 39.9114 -76.0206 269° West 353 406 18,100 500 Climbing FAA TRACON SMA TRACON (SMA)
Tue 04:04:03 PM 39.9114 -76.0206 108° East 353 406 18,100 1,875 Level FAA TRACON SMA TRACON (SMA)
Tue 04:06:03 PM 39.9150 -76.3925 271° West 388 447 23,100 2,685 Climbing New York Center
Tue 04:07:04 PM 39.9189 -76.5281 272° West 388 447 26,200 2,628 Climbing New York Center
Tue 04:08:04 PM 39.9261 -76.6722 274° West 388 447 28,400 2,281 Climbing New York Center
Tue 04:09:05 PM 39.9333 -76.8192 274° West 395 455 30,800 2,777 Climbing New York Center
Tue 04:10:05 PM 39.9156 -76.9636 261° West 402 463 34,000 2,011 Climbing New York Center
Tue 04:12:10 PM 39.8042 -77.2686 245° Southwest 427 491 37,000 1,849 Climbing Washington Center
Tue 04:13:10 PM 39.7397 -77.4022 238° Southwest 432 497 39,700 1,500 Climbing Washington Center
Tue 04:14:10 PM 39.6794 -77.5247 237° Southwest 432 497 40,000 150 Climbing Washington Center
Tue 04:15:10 PM 39.6169 -77.6522 238° Southwest 421 484 40,000  Level Washington Center
Tue 04:16:10 PM 39.5583 -77.7772 239° Southwest 421 484 40,000  Level Washington Center
Tue 04:17:10 PM 39.4958 -77.8989 236° Southwest 421 484 40,000  Level Washington Center
Tue 04:18:10 PM 39.4414 -78.0128 238° Southwest 421 484 40,000  Level Washington Center
Tue 04:19:10 PM 39.3783 -78.1397 237° Southwest 421 484 40,000  Level Washington Center
Tue 04:20:10 PM 39.3172 -78.2661 238° Southwest 421 484 40,000  Level Washington Center
Tue 04:21:10 PM 39.2517 -78.3953 237° Southwest 427 491 40,000  Level Washington Center
Tue 04:22:10 PM 39.1864 -78.5186 236° Southwest 427 491 40,000  Level Washington Center
Tue 04:23:10 PM 39.1269 -78.6472 239° Southwest 427 491 40,000  Level Washington Center
Tue 04:24:10 PM 39.0919 -78.7850 252° West 422 486 40,000  Level Washington Center
Tue 04:25:10 PM 39.0567 -78.9303 253° West 417 480 40,000  Level Washington Center
Tue 04:27:10 PM 38.9903 -79.2078 253° West 417 480 40,000  Level Washington Center
Tue 04:28:10 PM 38.9547 -79.3503 252° West 412 474 40,000  Level Washington Center
Tue 04:29:10 PM 38.9192 -79.4897 252° West 412 474 40,000  Level Washington Center
Tue 04:30:10 PM 38.8825 -79.6478 253° West 422 486 40,000  Level Washington Center
Tue 04:31:10 PM 38.8461 -79.7978 253° West 422 486 40,000  Level Washington Center
Tue 04:32:10 PM 38.8119 -79.9397 253° West 422 486 40,000  Level Washington Center
Tue 04:34:38 PM 38.7244 -80.2656 251° West 426 490 40,000  Level Indianapolis Center
Tue 04:35:40 PM 38.6803 -80.4392 252° West 425 489 40,000  Level Indianapolis Center
Tue 04:36:42 PM 38.6433 -80.5819 252° West 422 486 40,000  Level Indianapolis Center
Tue 04:37:44 PM 38.6056 -80.7244 251° West 421 484 40,000 -96 Level Indianapolis Center
Tue 04:38:47 PM 38.5689 -80.8656 252° West 418 481 39,800 -912 Descending Indianapolis Center
Tue 04:39:49 PM 38.5331 -81.0039 252° West 412 474 38,100 -871 Descending Indianapolis Center
Tue 04:40:51 PM 38.4997 -81.1322 252° West 386 444 38,000 -48 Descending Indianapolis Center
Tue 04:41:53 PM 38.4656 -81.2617 251° West 381 438 38,000  Level Indianapolis Center
Tue 04:42:55 PM 38.4239 -81.4175 251° West 383 441 38,000  Level Indianapolis Center
Tue 04:43:57 PM 38.3894 -81.5475 251° West 383 441 38,000  Level Indianapolis Center
Tue 04:44:59 PM 38.3547 -81.6775 251° West 383 441 38,000  Level Indianapolis Center
Tue 04:46:01 PM 38.3203 -81.8056 251° West 381 438 38,000  Level Indianapolis Center
Tue 04:47:03 PM 38.2856 -81.9322 251° West 378 435 38,000  Level Indianapolis Center
Tue 04:48:05 PM 38.2506 -82.0594 251° West 378 435 38,000 -48 Level Indianapolis Center
Tue 04:49:07 PM 38.2164 -82.1864 251° West 378 435 37,900  Descending Indianapolis Center
Tue 04:50:09 PM 38.1811 -82.3122 250° West 378 435 38,000 48 Climbing Indianapolis Center
Tue 04:51:11 PM 38.1400 -82.4642 251° West 377 434 38,000  Level Indianapolis Center
Tue 04:52:13 PM 38.1086 -82.5769 251° West 379 436 38,000  Level Indianapolis Center
Tue 04:53:15 PM 38.0672 -82.7231 250° West 379 436 38,000  Level Indianapolis Center
Tue 04:54:17 PM 38.0317 -82.8497 250° West 382 440 38,000  Level Indianapolis Center
Tue 04:56:21 PM 37.9592 -83.1033 250° West 383 441 38,000 -323 Level Indianapolis Center
Tue 04:57:23 PM 37.9239 -83.2297 251° West 380 437 37,000 -1,016 Descending Indianapolis Center
Tue 04:58:25 PM 37.8608 -83.3636 239° Southwest 383 441 35,900 -968 Descending Indianapolis Center
Tue 04:59:27 PM 37.7994 -83.4744 235° Southwest 383 441 35,000 -919 Descending Indianapolis Center
Tue 05:00:29 PM 37.7381 -83.5869 235° Southwest 388 447 34,000 -484 Descending Indianapolis Center
Tue 05:01:31 PM 37.6747 -83.7000 235° Southwest 393 452 34,000  Level Indianapolis Center
Tue 05:02:33 PM 37.6128 -83.8122 235° Southwest 391 450 34,000  Level Indianapolis Center
Tue 05:03:35 PM 37.5381 -83.9439 234° Southwest 393 452 34,000 -290 Level Indianapolis Center
Tue 05:04:37 PM 37.4750 -84.0567 235° Southwest 395 455 33,400 -484 Descending Indianapolis Center
Tue 05:05:39 PM 37.4111 -84.1725 235° Southwest 401 461 33,000 -194 Descending Indianapolis Center
Tue 05:06:41 PM 37.3456 -84.2875 234° Southwest 405 466 33,000  Level Indianapolis Center
Tue 05:07:43 PM 37.2803 -84.4033 235° Southwest 405 466 33,000  Level Indianapolis Center
Tue 05:08:45 PM 37.2031 -84.5403 235° Southwest 410 472 33,000  Level Indianapolis Center
Tue 05:09:47 PM 37.1367 -84.6553 234° Southwest 409 471 33,000  Level Indianapolis Center
Tue 05:10:49 PM 37.0681 -84.7731 234° Southwest 416 479 33,000  Level Indianapolis Center
Tue 05:11:52 PM 37.0011 -84.8936 235° Southwest 411 473 33,000 -1,056 Level Indianapolis Center
Tue 05:12:54 PM 36.9347 -85.0081 234° Southwest 409 471 30,800 -2,371 Descending Indianapolis Center
Tue 05:13:56 PM 36.8778 -85.1289 240° Southwest 403 464 28,100 -2,634 Descending Indianapolis Center
Tue 05:14:57 PM 36.8231 -85.2467 240° Southwest 395 455 25,400 -2,829 Descending Indianapolis Center
Tue 05:15:59 PM 36.7597 -85.3836 240° Southwest 381 438 22,300 -1,645 Descending Indianapolis Center
Tue 05:17:01 PM 36.7086 -85.4914 239° Southwest 365 420 22,000 -532 Descending Indianapolis Center
Tue 05:18:03 PM 36.6581 -85.5975 239° Southwest 359 413 21,200 -1,500 Descending Indianapolis Center
Tue 05:19:05 PM 36.6083 -85.7017 239° Southwest 352 405 18,900 -2,226 Descending Indianapolis Center
Tue 05:20:07 PM 36.5608 -85.8017 239° Southwest 341 392 16,600 -2,304 Descending Indianapolis Center
Tue 05:21:10 PM 36.5144 -85.9058 241° Southwest 330 380 14,100 -2,293 Descending Memphis Center
Tue 05:22:10 PM 36.4697 -85.9958 238° Southwest 321 369 11,900 -1,900 Descending Memphis Center
Tue 05:23:10 PM 36.4250 -86.0886 239° Southwest 310 357 10,300 -1,350 Descending Memphis Center
Tue 05:24:10 PM 36.3878 -86.1628 238° Southwest 276 318 9,200 -1,300 Descending Memphis Center
Tue 05:25:10 PM 36.3589 -86.2364 244° Southwest 253 291 7,700 -1,450 Descending Memphis Center
Tue 05:26:10 PM 36.3303 -86.3100 244° Southwest 248 285 6,300 -1,500 Descending Memphis Center
Tue 05:27:10 PM 36.2994 -86.3914 245° Southwest 256 295 4,700 -1,150 Descending Memphis Center
Tue 05:28:10 PM 36.2686 -86.4675 243° Southwest 256 295 4,000 -350 Descending Memphis Center
Tue 05:29:10 PM 36.2456 -86.5303 246° West 226 260 4,000 -400 Level Memphis Center
Tue 05:30:10 PM 36.2222 -86.5856 242° Southwest 193 222 3,200 -900 Descending Memphis Center
Tue 05:31:10 PM 36.2067 -86.6222 242° Southwest 158 182 2,200 -850 Descending Memphis Center
Tue 05:32:10 PM 36.1758 -86.6417 207° Southwest 129 148 1,500 -700 Descending Memphis Center
Tue 05:33:10 PM 36.1408 -86.6561 198° South 129 148 800 -400 Descending Memphis Center
Tue 05:34:10 PM 36.1019 -86.6758 202° Southwest 129 148 700 -100 Descending Memphis Center
Tue 05:36:00 PM 36.1167 -86.6667 287° West  Level FlightAware Approximate
Tue 05:43:00 PM 36.1245 -86.6782 287° West  Level Estimated
Tue 05:44:00 PM 36.1245 -86.6782 287° West  Level Estimated
Tue 05:45:00 PM 36.1245 -86.6782 287° West  Level Estimated
Tue 05:46:00 PM 36.1245 -86.6782 287° West  Level Estimated
Tue 05:47:00 PM 36.1245 -86.6782 287° West  Level Estimated
Tue 05:48:00 PM 36.1245 -86.6782 287° West  Level Estimated

Login

Don't have an account? Register now (free) for customized features, flight alerts, and more!